sensor_id;sensor_type;location;lat;lon;timestamp;temperature;humidity
39849;DHT22;25518;47.878;15.914;2023-05-28T00:01:29;8.40;99.90
39849;DHT22;25518;47.878;15.914;2023-05-28T00:04:18;8.40;99.90
39849;DHT22;25518;47.878;15.914;2023-05-28T00:07:08;8.50;99.90
39849;DHT22;25518;47.878;15.914;2023-05-28T00:10:00;8.30;99.90
39849;DHT22;25518;47.878;15.914;2023-05-28T00:12:49;8.20;99.90
39849;DHT22;25518;47.878;15.914;2023-05-28T00:15:39;8.00;99.90
39849;DHT22;25518;47.878;15.914;2023-05-28T00:18:29;8.20;99.90
39849;DHT22;25518;47.878;15.914;2023-05-28T00:21:19;8.20;99.90
39849;DHT22;25518;47.878;15.914;2023-05-28T00:24:09;8.00;99.90
39849;DHT22;25518;47.878;15.914;2023-05-28T00:26:58;7.90;99.90
39849;DHT22;25518;47.878;15.914;2023-05-28T00:29:48;7.80;99.90
39849;DHT22;25518;47.878;15.914;2023-05-28T00:32:37;7.90;99.90
39849;DHT22;25518;47.878;15.914;2023-05-28T00:35:27;7.80;99.90
39849;DHT22;25518;47.878;15.914;2023-05-28T00:38:17;7.80;99.90
39849;DHT22;25518;47.878;15.914;2023-05-28T00:41:07;7.90;99.90
39849;DHT22;25518;47.878;15.914;2023-05-28T00:43:57;8.00;99.90
39849;DHT22;25518;47.878;15.914;2023-05-28T00:46:46;8.10;99.90
39849;DHT22;25518;47.878;15.914;2023-05-28T00:49:36;8.10;99.90
39849;DHT22;25518;47.878;15.914;2023-05-28T00:52:26;8.00;99.90
39849;DHT22;25518;47.878;15.914;2023-05-28T00:55:16;7.90;99.90
39849;DHT22;25518;47.878;15.914;2023-05-28T00:58:06;8.10;99.90
39849;DHT22;25518;47.878;15.914;2023-05-28T01:00:56;8.00;99.90
39849;DHT22;25518;47.878;15.914;2023-05-28T01:03:46;8.00;99.90
39849;DHT22;25518;47.878;15.914;2023-05-28T01:06:36;7.80;99.90
39849;DHT22;25518;47.878;15.914;2023-05-28T01:09:27;7.80;99.90
39849;DHT22;25518;47.878;15.914;2023-05-28T01:12:18;7.70;99.90
39849;DHT22;25518;47.878;15.914;2023-05-28T01:15:08;7.70;99.90
39849;DHT22;25518;47.878;15.914;2023-05-28T01:18:00;7.70;99.90
39849;DHT22;25518;47.878;15.914;2023-05-28T01:20:50;7.60;99.90
39849;DHT22;25518;47.878;15.914;2023-05-28T01:23:42;7.40;99.90
39849;DHT22;25518;47.878;15.914;2023-05-28T01:26:33;7.70;99.90
39849;DHT22;25518;47.878;15.914;2023-05-28T01:29:24;7.80;99.90
39849;DHT22;25518;47.878;15.914;2023-05-28T01:32:13;7.60;99.90
39849;DHT22;25518;47.878;15.914;2023-05-28T01:35:05;7.50;99.90
39849;DHT22;25518;47.878;15.914;2023-05-28T01:37:55;7.30;99.90
39849;DHT22;25518;47.878;15.914;2023-05-28T01:40:48;7.40;99.90
39849;DHT22;25518;47.878;15.914;2023-05-28T01:43:40;7.40;99.90
39849;DHT22;25518;47.878;15.914;2023-05-28T01:46:30;7.30;99.90
39849;DHT22;25518;47.878;15.914;2023-05-28T01:49:21;7.30;99.90
39849;DHT22;25518;47.878;15.914;2023-05-28T01:52:13;7.20;99.90
39849;DHT22;25518;47.878;15.914;2023-05-28T01:55:06;7.20;99.90
39849;DHT22;25518;47.878;15.914;2023-05-28T01:57:58;7.10;99.90
39849;DHT22;25518;47.878;15.914;2023-05-28T02:00:59;7.20;99.90
39849;DHT22;25518;47.878;15.914;2023-05-28T02:03:50;7.20;99.90
39849;DHT22;25518;47.878;15.914;2023-05-28T02:06:44;7.30;99.90
39849;DHT22;25518;47.878;15.914;2023-05-28T02:09:34;7.30;99.90
39849;DHT22;25518;47.878;15.914;2023-05-28T02:12:23;7.20;99.90
39849;DHT22;25518;47.878;15.914;2023-05-28T02:15:13;7.10;99.90
39849;DHT22;25518;47.878;15.914;2023-05-28T02:18:03;6.90;99.90
39849;DHT22;25518;47.878;15.914;2023-05-28T02:20:52;7.10;99.90
39849;DHT22;25518;47.878;15.914;2023-05-28T02:23:45;7.10;99.90
39849;DHT22;25518;47.878;15.914;2023-05-28T02:26:35;7.10;99.90
39849;DHT22;25518;47.878;15.914;2023-05-28T02:29:24;7.00;99.90
39849;DHT22;25518;47.878;15.914;2023-05-28T02:32:14;6.80;99.90
39849;DHT22;25518;47.878;15.914;2023-05-28T02:35:04;6.70;99.90
39849;DHT22;25518;47.878;15.914;2023-05-28T02:37:55;6.50;99.90
39849;DHT22;25518;47.878;15.914;2023-05-28T02:40:44;6.60;99.90
39849;DHT22;25518;47.878;15.914;2023-05-28T02:43:34;6.60;99.90
39849;DHT22;25518;47.878;15.914;2023-05-28T02:46:24;6.70;99.90
39849;DHT22;25518;47.878;15.914;2023-05-28T02:49:14;6.50;99.90
39849;DHT22;25518;47.878;15.914;2023-05-28T02:52:04;6.70;99.90
39849;DHT22;25518;47.878;15.914;2023-05-28T02:54:53;6.60;99.90
39849;DHT22;25518;47.878;15.914;2023-05-28T02:57:43;6.60;99.90
39849;DHT22;25518;47.878;15.914;2023-05-28T03:00:33;6.70;99.90
39849;DHT22;25518;47.878;15.914;2023-05-28T03:17:28;6.60;99.90
39849;DHT22;25518;47.878;15.914;2023-05-28T03:20:18;6.30;99.90
39849;DHT22;25518;47.878;15.914;2023-05-28T03:23:07;6.60;99.90
39849;DHT22;25518;47.878;15.914;2023-05-28T03:25:57;6.30;99.90
39849;DHT22;25518;47.878;15.914;2023-05-28T03:28:47;6.30;99.90
39849;DHT22;25518;47.878;15.914;2023-05-28T03:31:46;4.50;99.90
39849;DHT22;25518;47.878;15.914;2023-05-28T03:34:35;6.60;99.90
39849;DHT22;25518;47.878;15.914;2023-05-28T03:37:25;6.60;99.90
39849;DHT22;25518;47.878;15.914;2023-05-28T03:40:16;6.70;99.90
39849;DHT22;25518;47.878;15.914;2023-05-28T03:43:07;6.60;99.90
39849;DHT22;25518;47.878;15.914;2023-05-28T03:45:57;6.00;99.90
39849;DHT22;25518;47.878;15.914;2023-05-28T03:48:47;6.00;99.90
39849;DHT22;25518;47.878;15.914;2023-05-28T03:51:36;6.10;99.90
39849;DHT22;25518;47.878;15.914;2023-05-28T03:54:26;6.00;99.90
39849;DHT22;25518;47.878;15.914;2023-05-28T03:57:16;6.20;99.90
39849;DHT22;25518;47.878;15.914;2023-05-28T04:00:06;6.50;99.90
39849;DHT22;25518;47.878;15.914;2023-05-28T04:02:56;6.40;99.90
39849;DHT22;25518;47.878;15.914;2023-05-28T04:05:46;6.50;99.90
39849;DHT22;25518;47.878;15.914;2023-05-28T04:08:36;6.50;99.90
39849;DHT22;25518;47.878;15.914;2023-05-28T04:11:25;6.50;99.90
39849;DHT22;25518;47.878;15.914;2023-05-28T04:14:18;6.70;99.90
39849;DHT22;25518;47.878;15.914;2023-05-28T04:17:09;6.60;99.90
39849;DHT22;25518;47.878;15.914;2023-05-28T04:20:01;6.60;99.90
39849;DHT22;25518;47.878;15.914;2023-05-28T04:22:54;6.70;99.90
39849;DHT22;25518;47.878;15.914;2023-05-28T04:25:44;6.60;99.90
39849;DHT22;25518;47.878;15.914;2023-05-28T04:28:34;6.60;99.90
39849;DHT22;25518;47.878;15.914;2023-05-28T04:31:23;6.70;99.90
39849;DHT22;25518;47.878;15.914;2023-05-28T04:34:16;6.90;99.90
39849;DHT22;25518;47.878;15.914;2023-05-28T04:37:06;7.00;99.90
39849;DHT22;25518;47.878;15.914;2023-05-28T04:39:56;7.00;99.90
39849;DHT22;25518;47.878;15.914;2023-05-28T04:42:46;6.90;99.90
39849;DHT22;25518;47.878;15.914;2023-05-28T04:45:37;7.10;99.90
39849;DHT22;25518;47.878;15.914;2023-05-28T04:48:27;6.90;99.90
39849;DHT22;25518;47.878;15.914;2023-05-28T04:51:17;7.10;99.90
39849;DHT22;25518;47.878;15.914;2023-05-28T04:54:07;7.10;99.90
39849;DHT22;25518;47.878;15.914;2023-05-28T04:56:57;7.30;99.90
39849;DHT22;25518;47.878;15.914;2023-05-28T04:59:46;7.40;99.90
39849;DHT22;25518;47.878;15.914;2023-05-28T05:02:37;7.30;99.90
39849;DHT22;25518;47.878;15.914;2023-05-28T05:05:28;7.50;99.90
39849;DHT22;25518;47.878;15.914;2023-05-28T05:08:18;7.40;99.90
39849;DHT22;25518;47.878;15.914;2023-05-28T05:11:08;7.60;99.90
39849;DHT22;25518;47.878;15.914;2023-05-28T05:13:57;7.80;99.90
39849;DHT22;25518;47.878;15.914;2023-05-28T05:16:47;7.80;99.90
39849;DHT22;25518;47.878;15.914;2023-05-28T05:19:37;7.90;99.90
39849;DHT22;25518;47.878;15.914;2023-05-28T05:22:26;7.90;99.90
39849;DHT22;25518;47.878;15.914;2023-05-28T05:25:16;8.10;99.90
39849;DHT22;25518;47.878;15.914;2023-05-28T05:28:05;8.00;99.90
39849;DHT22;25518;47.878;15.914;2023-05-28T05:30:55;7.90;99.90
39849;DHT22;25518;47.878;15.914;2023-05-28T05:33:45;8.10;99.90
39849;DHT22;25518;47.878;15.914;2023-05-28T05:36:34;8.40;99.90
39849;DHT22;25518;47.878;15.914;2023-05-28T05:39:25;8.30;99.90
39849;DHT22;25518;47.878;15.914;2023-05-28T05:42:15;8.50;99.90
39849;DHT22;25518;47.878;15.914;2023-05-28T05:45:05;8.50;99.90
39849;DHT22;25518;47.878;15.914;2023-05-28T05:47:55;8.60;99.90
39849;DHT22;25518;47.878;15.914;2023-05-28T05:50:50;8.60;99.90
39849;DHT22;25518;47.878;15.914;2023-05-28T05:53:40;8.70;99.90
39849;DHT22;25518;47.878;15.914;2023-05-28T05:56:30;8.70;99.90
39849;DHT22;25518;47.878;15.914;2023-05-28T05:59:20;8.80;99.90
39849;DHT22;25518;47.878;15.914;2023-05-28T06:02:10;8.90;99.90
39849;DHT22;25518;47.878;15.914;2023-05-28T06:04:59;8.90;99.90
39849;DHT22;25518;47.878;15.914;2023-05-28T06:07:49;8.90;99.90
39849;DHT22;25518;47.878;15.914;2023-05-28T06:10:38;8.90;99.90
39849;DHT22;25518;47.878;15.914;2023-05-28T06:13:28;9.10;99.90
39849;DHT22;25518;47.878;15.914;2023-05-28T06:16:18;9.20;99.90
39849;DHT22;25518;47.878;15.914;2023-05-28T06:19:07;9.20;99.90
39849;DHT22;25518;47.878;15.914;2023-05-28T06:21:57;9.30;99.90
39849;DHT22;25518;47.878;15.914;2023-05-28T06:24:46;9.40;99.90
39849;DHT22;25518;47.878;15.914;2023-05-28T06:27:38;9.60;99.90
39849;DHT22;25518;47.878;15.914;2023-05-28T06:30:28;9.90;99.90
39849;DHT22;25518;47.878;15.914;2023-05-28T06:33:18;10.00;99.90
39849;DHT22;25518;47.878;15.914;2023-05-28T06:36:10;10.20;99.90
39849;DHT22;25518;47.878;15.914;2023-05-28T06:38:59;10.40;99.90
39849;DHT22;25518;47.878;15.914;2023-05-28T06:41:49;10.50;99.90
39849;DHT22;25518;47.878;15.914;2023-05-28T06:44:39;10.60;99.90
39849;DHT22;25518;47.878;15.914;2023-05-28T06:47:28;10.80;99.90
39849;DHT22;25518;47.878;15.914;2023-05-28T06:50:18;10.90;99.90
39849;DHT22;25518;47.878;15.914;2023-05-28T06:53:08;11.10;99.90
39849;DHT22;25518;47.878;15.914;2023-05-28T06:55:57;11.30;99.90
39849;DHT22;25518;47.878;15.914;2023-05-28T06:58:47;11.40;99.90
39849;DHT22;25518;47.878;15.914;2023-05-28T07:01:39;11.40;99.90
39849;DHT22;25518;47.878;15.914;2023-05-28T07:04:28;11.60;99.90
39849;DHT22;25518;47.878;15.914;2023-05-28T07:07:18;11.80;99.90
39849;DHT22;25518;47.878;15.914;2023-05-28T07:10:08;11.90;99.90
39849;DHT22;25518;47.878;15.914;2023-05-28T07:12:57;12.00;99.90
39849;DHT22;25518;47.878;15.914;2023-05-28T07:15:47;11.50;99.90
39849;DHT22;25518;47.878;15.914;2023-05-28T07:18:37;12.30;99.90
39849;DHT22;25518;47.878;15.914;2023-05-28T07:21:27;12.50;99.90
39849;DHT22;25518;47.878;15.914;2023-05-28T07:24:16;12.70;99.90
39849;DHT22;25518;47.878;15.914;2023-05-28T07:27:06;12.90;99.90
39849;DHT22;25518;47.878;15.914;2023-05-28T07:29:56;13.00;99.90
39849;DHT22;25518;47.878;15.914;2023-05-28T07:32:46;13.20;99.90
39849;DHT22;25518;47.878;15.914;2023-05-28T07:35:35;13.50;99.90
39849;DHT22;25518;47.878;15.914;2023-05-28T07:38:24;13.80;99.90
39849;DHT22;25518;47.878;15.914;2023-05-28T07:41:14;13.90;99.90
39849;DHT22;25518;47.878;15.914;2023-05-28T07:44:04;14.00;99.90
39849;DHT22;25518;47.878;15.914;2023-05-28T07:46:55;14.20;99.90
39849;DHT22;25518;47.878;15.914;2023-05-28T07:49:45;14.50;99.90
39849;DHT22;25518;47.878;15.914;2023-05-28T07:52:35;14.90;99.90
39849;DHT22;25518;47.878;15.914;2023-05-28T07:55:24;15.30;99.90
39849;DHT22;25518;47.878;15.914;2023-05-28T07:58:14;15.50;99.90
39849;DHT22;25518;47.878;15.914;2023-05-28T08:01:04;15.70;99.90
39849;DHT22;25518;47.878;15.914;2023-05-28T08:03:58;16.00;99.90
39849;DHT22;25518;47.878;15.914;2023-05-28T08:06:48;16.30;99.90
39849;DHT22;25518;47.878;15.914;2023-05-28T08:09:39;16.40;99.90
39849;DHT22;25518;47.878;15.914;2023-05-28T08:12:30;16.50;99.90
39849;DHT22;25518;47.878;15.914;2023-05-28T08:15:20;16.70;99.90
39849;DHT22;25518;47.878;15.914;2023-05-28T08:18:09;16.90;99.90
39849;DHT22;25518;47.878;15.914;2023-05-28T08:20:59;17.10;99.90
39849;DHT22;25518;47.878;15.914;2023-05-28T08:23:48;17.40;99.90
39849;DHT22;25518;47.878;15.914;2023-05-28T08:26:38;17.70;99.90
39849;DHT22;25518;47.878;15.914;2023-05-28T08:29:28;17.80;99.90
39849;DHT22;25518;47.878;15.914;2023-05-28T08:32:17;18.10;99.90
39849;DHT22;25518;47.878;15.914;2023-05-28T08:35:07;18.30;99.90
39849;DHT22;25518;47.878;15.914;2023-05-28T08:37:57;18.20;99.90
39849;DHT22;25518;47.878;15.914;2023-05-28T08:40:54;18.40;99.90
39849;DHT22;25518;47.878;15.914;2023-05-28T08:43:44;18.70;99.90
39849;DHT22;25518;47.878;15.914;2023-05-28T08:46:34;18.70;99.90
39849;DHT22;25518;47.878;15.914;2023-05-28T08:49:41;18.90;99.90
39849;DHT22;25518;47.878;15.914;2023-05-28T08:52:32;19.00;99.90
39849;DHT22;25518;47.878;15.914;2023-05-28T08:55:22;19.20;99.90
39849;DHT22;25518;47.878;15.914;2023-05-28T08:58:13;19.20;99.80
39849;DHT22;25518;47.878;15.914;2023-05-28T09:01:04;19.10;99.90
39849;DHT22;25518;47.878;15.914;2023-05-28T09:03:56;19.20;99.90
39849;DHT22;25518;47.878;15.914;2023-05-28T09:06:45;18.90;99.90
39849;DHT22;25518;47.878;15.914;2023-05-28T09:09:35;19.40;99.90
39849;DHT22;25518;47.878;15.914;2023-05-28T09:12:26;19.60;99.90
39849;DHT22;25518;47.878;15.914;2023-05-28T09:15:18;19.60;98.80
39849;DHT22;25518;47.878;15.914;2023-05-28T09:18:11;19.60;98.40
39849;DHT22;25518;47.878;15.914;2023-05-28T09:21:00;19.80;97.90
39849;DHT22;25518;47.878;15.914;2023-05-28T09:23:51;20.00;98.60
39849;DHT22;25518;47.878;15.914;2023-05-28T09:26:40;20.00;97.90
39849;DHT22;25518;47.878;15.914;2023-05-28T09:29:30;19.90;97.30
39849;DHT22;25518;47.878;15.914;2023-05-28T09:32:19;20.00;97.00
39849;DHT22;25518;47.878;15.914;2023-05-28T09:35:11;19.90;97.60
39849;DHT22;25518;47.878;15.914;2023-05-28T09:38:11;19.90;99.10
39849;DHT22;25518;47.878;15.914;2023-05-28T09:41:01;20.10;95.10
39849;DHT22;25518;47.878;15.914;2023-05-28T09:44:01;20.30;96.00
39849;DHT22;25518;47.878;15.914;2023-05-28T09:46:51;20.60;97.30
39849;DHT22;25518;47.878;15.914;2023-05-28T09:49:42;20.60;96.50
39849;DHT22;25518;47.878;15.914;2023-05-28T09:52:33;20.60;97.60
39849;DHT22;25518;47.878;15.914;2023-05-28T09:55:25;18.50;96.60
39849;DHT22;25518;47.878;15.914;2023-05-28T09:58:16;20.60;97.20
39849;DHT22;25518;47.878;15.914;2023-05-28T10:01:09;20.70;96.40
39849;DHT22;25518;47.878;15.914;2023-05-28T10:04:05;20.30;95.80
39849;DHT22;25518;47.878;15.914;2023-05-28T10:06:57;20.70;95.20
39849;DHT22;25518;47.878;15.914;2023-05-28T10:09:47;20.80;95.90
39849;DHT22;25518;47.878;15.914;2023-05-28T10:12:39;20.70;95.50
39849;DHT22;25518;47.878;15.914;2023-05-28T10:15:29;20.80;96.50
39849;DHT22;25518;47.878;15.914;2023-05-28T10:18:20;21.10;95.50
39849;DHT22;25518;47.878;15.914;2023-05-28T10:21:11;21.10;95.10
39849;DHT22;25518;47.878;15.914;2023-05-28T10:24:03;21.30;94.60
39849;DHT22;25518;47.878;15.914;2023-05-28T10:26:54;21.50;94.50
39849;DHT22;25518;47.878;15.914;2023-05-28T10:29:45;21.10;94.40
39849;DHT22;25518;47.878;15.914;2023-05-28T10:32:39;21.50;93.30
39849;DHT22;25518;47.878;15.914;2023-05-28T10:35:32;21.60;92.80
39849;DHT22;25518;47.878;15.914;2023-05-28T10:38:22;21.50;91.50
39849;DHT22;25518;47.878;15.914;2023-05-28T10:41:21;21.60;93.70
39849;DHT22;25518;47.878;15.914;2023-05-28T10:44:11;21.70;94.40
39849;DHT22;25518;47.878;15.914;2023-05-28T10:47:04;21.60;92.20
39849;DHT22;25518;47.878;15.914;2023-05-28T10:50:11;21.50;92.30
39849;DHT22;25518;47.878;15.914;2023-05-28T10:53:06;21.60;94.20
39849;DHT22;25518;47.878;15.914;2023-05-28T10:55:56;21.80;94.10
39849;DHT22;25518;47.878;15.914;2023-05-28T10:58:46;21.90;94.60
39849;DHT22;25518;47.878;15.914;2023-05-28T11:01:35;21.90;94.00
39849;DHT22;25518;47.878;15.914;2023-05-28T11:04:25;21.90;93.10
39849;DHT22;25518;47.878;15.914;2023-05-28T11:07:15;21.80;94.70
39849;DHT22;25518;47.878;15.914;2023-05-28T11:10:08;21.90;95.40
39849;DHT22;25518;47.878;15.914;2023-05-28T11:12:58;21.80;94.00
39849;DHT22;25518;47.878;15.914;2023-05-28T11:15:48;21.90;97.60
39849;DHT22;25518;47.878;15.914;2023-05-28T11:18:38;22.00;95.50
39849;DHT22;25518;47.878;15.914;2023-05-28T11:21:27;21.90;97.30
39849;DHT22;25518;47.878;15.914;2023-05-28T11:24:17;21.70;96.80
39849;DHT22;25518;47.878;15.914;2023-05-28T11:27:08;19.70;94.10
39849;DHT22;25518;47.878;15.914;2023-05-28T11:29:59;21.90;96.20
39849;DHT22;25518;47.878;15.914;2023-05-28T11:32:49;21.80;95.10
39849;DHT22;25518;47.878;15.914;2023-05-28T11:35:42;21.80;97.30
39849;DHT22;25518;47.878;15.914;2023-05-28T11:38:31;21.80;97.40
39849;DHT22;25518;47.878;15.914;2023-05-28T11:41:23;21.90;95.80
39849;DHT22;25518;47.878;15.914;2023-05-28T11:44:20;21.20;96.60
39849;DHT22;25518;47.878;15.914;2023-05-28T11:47:10;21.90;95.30
39849;DHT22;25518;47.878;15.914;2023-05-28T11:50:06;21.70;97.00
39849;DHT22;25518;47.878;15.914;2023-05-28T11:52:56;21.60;93.70
39849;DHT22;25518;47.878;15.914;2023-05-28T11:55:45;21.60;93.50
39849;DHT22;25518;47.878;15.914;2023-05-28T11:58:35;21.60;94.40
39849;DHT22;25518;47.878;15.914;2023-05-28T12:01:32;21.60;96.00
39849;DHT22;25518;47.878;15.914;2023-05-28T12:04:24;21.70;96.20
39849;DHT22;25518;47.878;15.914;2023-05-28T12:07:14;21.80;95.40
39849;DHT22;25518;47.878;15.914;2023-05-28T12:10:05;21.90;94.20
39849;DHT22;25518;47.878;15.914;2023-05-28T12:12:55;21.80;94.20
39849;DHT22;25518;47.878;15.914;2023-05-28T12:15:46;21.70;96.50
39849;DHT22;25518;47.878;15.914;2023-05-28T12:18:40;21.80;95.50
39849;DHT22;25518;47.878;15.914;2023-05-28T12:21:34;21.70;95.00
39849;DHT22;25518;47.878;15.914;2023-05-28T12:24:27;21.70;97.40
39849;DHT22;25518;47.878;15.914;2023-05-28T12:27:17;21.80;97.60
39849;DHT22;25518;47.878;15.914;2023-05-28T12:30:07;21.80;93.80
39849;DHT22;25518;47.878;15.914;2023-05-28T12:32:57;21.80;95.20
39849;DHT22;25518;47.878;15.914;2023-05-28T12:35:47;21.90;95.60
39849;DHT22;25518;47.878;15.914;2023-05-28T12:38:36;21.90;94.90
39849;DHT22;25518;47.878;15.914;2023-05-28T12:41:27;21.90;98.00
39849;DHT22;25518;47.878;15.914;2023-05-28T12:44:17;22.00;97.70
39849;DHT22;25518;47.878;15.914;2023-05-28T12:47:06;22.00;97.30
39849;DHT22;25518;47.878;15.914;2023-05-28T12:49:56;22.00;94.70
39849;DHT22;25518;47.878;15.914;2023-05-28T12:52:45;21.90;97.20
39849;DHT22;25518;47.878;15.914;2023-05-28T12:55:35;22.10;95.50
39849;DHT22;25518;47.878;15.914;2023-05-28T12:58:24;22.10;95.00
39849;DHT22;25518;47.878;15.914;2023-05-28T13:01:14;22.00;94.00
39849;DHT22;25518;47.878;15.914;2023-05-28T13:04:03;21.90;95.60
39849;DHT22;25518;47.878;15.914;2023-05-28T13:06:53;21.80;97.20
39849;DHT22;25518;47.878;15.914;2023-05-28T13:09:43;22.10;96.00
39849;DHT22;25518;47.878;15.914;2023-05-28T13:12:32;22.20;96.10
39849;DHT22;25518;47.878;15.914;2023-05-28T13:15:23;22.30;95.70
39849;DHT22;25518;47.878;15.914;2023-05-28T13:18:12;22.40;96.10
39849;DHT22;25518;47.878;15.914;2023-05-28T13:21:02;22.20;93.70
39849;DHT22;25518;47.878;15.914;2023-05-28T13:23:51;22.30;96.10
39849;DHT22;25518;47.878;15.914;2023-05-28T13:26:42;22.50;94.90
39849;DHT22;25518;47.878;15.914;2023-05-28T13:29:32;22.30;94.00
39849;DHT22;25518;47.878;15.914;2023-05-28T13:32:21;22.20;95.10
39849;DHT22;25518;47.878;15.914;2023-05-28T13:35:11;22.30;96.80
39849;DHT22;25518;47.878;15.914;2023-05-28T13:38:00;21.90;98.80
39849;DHT22;25518;47.878;15.914;2023-05-28T13:40:50;22.10;96.60
39849;DHT22;25518;47.878;15.914;2023-05-28T13:43:42;22.10;95.00
39849;DHT22;25518;47.878;15.914;2023-05-28T13:46:31;22.10;96.90
39849;DHT22;25518;47.878;15.914;2023-05-28T13:49:21;22.10;95.80
39849;DHT22;25518;47.878;15.914;2023-05-28T13:52:11;22.30;94.80
39849;DHT22;25518;47.878;15.914;2023-05-28T13:55:00;22.30;96.50
39849;DHT22;25518;47.878;15.914;2023-05-28T13:57:50;22.30;95.00
39849;DHT22;25518;47.878;15.914;2023-05-28T14:00:40;22.20;95.80
39849;DHT22;25518;47.878;15.914;2023-05-28T14:03:30;22.30;96.50
39849;DHT22;25518;47.878;15.914;2023-05-28T14:06:20;22.40;95.50
39849;DHT22;25518;47.878;15.914;2023-05-28T14:09:09;22.50;95.60
39849;DHT22;25518;47.878;15.914;2023-05-28T14:11:59;22.30;94.10
39849;DHT22;25518;47.878;15.914;2023-05-28T14:14:49;22.30;95.60
39849;DHT22;25518;47.878;15.914;2023-05-28T14:17:39;22.20;94.60
39849;DHT22;25518;47.878;15.914;2023-05-28T14:20:29;22.20;94.10
39849;DHT22;25518;47.878;15.914;2023-05-28T14:23:23;22.10;94.40
39849;DHT22;25518;47.878;15.914;2023-05-28T14:26:13;22.10;94.50
39849;DHT22;25518;47.878;15.914;2023-05-28T14:29:03;22.20;94.70
39849;DHT22;25518;47.878;15.914;2023-05-28T14:31:52;22.20;92.80
39849;DHT22;25518;47.878;15.914;2023-05-28T14:34:42;22.10;93.10
39849;DHT22;25518;47.878;15.914;2023-05-28T14:37:32;22.10;93.80
39849;DHT22;25518;47.878;15.914;2023-05-28T14:40:21;22.10;93.30
39849;DHT22;25518;47.878;15.914;2023-05-28T14:43:11;22.10;93.40
39849;DHT22;25518;47.878;15.914;2023-05-28T14:46:01;22.10;91.20
39849;DHT22;25518;47.878;15.914;2023-05-28T14:48:51;22.00;91.70
39849;DHT22;25518;47.878;15.914;2023-05-28T14:51:41;22.10;94.70
39849;DHT22;25518;47.878;15.914;2023-05-28T14:54:30;21.90;93.30
39849;DHT22;25518;47.878;15.914;2023-05-28T14:57:21;21.90;94.80
39849;DHT22;25518;47.878;15.914;2023-05-28T15:00:11;21.90;92.30
39849;DHT22;25518;47.878;15.914;2023-05-28T15:03:02;21.90;93.70
39849;DHT22;25518;47.878;15.914;2023-05-28T15:05:51;21.90;93.40
39849;DHT22;25518;47.878;15.914;2023-05-28T15:08:41;22.00;93.10
39849;DHT22;25518;47.878;15.914;2023-05-28T15:11:31;21.30;92.50
39849;DHT22;25518;47.878;15.914;2023-05-28T15:14:20;22.00;94.30
39849;DHT22;25518;47.878;15.914;2023-05-28T15:17:10;22.00;92.90
39849;DHT22;25518;47.878;15.914;2023-05-28T15:20:00;21.80;91.80
39849;DHT22;25518;47.878;15.914;2023-05-28T15:22:50;21.70;93.50
39849;DHT22;25518;47.878;15.914;2023-05-28T15:25:40;21.70;94.60
39849;DHT22;25518;47.878;15.914;2023-05-28T15:28:29;21.90;92.90
39849;DHT22;25518;47.878;15.914;2023-05-28T15:31:19;21.90;94.70
39849;DHT22;25518;47.878;15.914;2023-05-28T15:34:10;21.70;94.30
39849;DHT22;25518;47.878;15.914;2023-05-28T15:37:00;21.60;94.70
39849;DHT22;25518;47.878;15.914;2023-05-28T15:39:49;21.70;93.60
39849;DHT22;25518;47.878;15.914;2023-05-28T15:42:40;21.70;93.80
39849;DHT22;25518;47.878;15.914;2023-05-28T15:45:31;21.70;95.60
39849;DHT22;25518;47.878;15.914;2023-05-28T15:48:21;21.70;94.90
39849;DHT22;25518;47.878;15.914;2023-05-28T15:51:11;20.90;94.90
39849;DHT22;25518;47.878;15.914;2023-05-28T15:54:01;21.70;94.40
39849;DHT22;25518;47.878;15.914;2023-05-28T15:56:51;21.90;94.30
39849;DHT22;25518;47.878;15.914;2023-05-28T15:59:41;21.90;94.80
39849;DHT22;25518;47.878;15.914;2023-05-28T16:02:37;22.00;94.40
39849;DHT22;25518;47.878;15.914;2023-05-28T16:05:28;21.90;93.80
39849;DHT22;25518;47.878;15.914;2023-05-28T16:08:18;22.00;94.30
39849;DHT22;25518;47.878;15.914;2023-05-28T16:11:12;22.00;94.30
39849;DHT22;25518;47.878;15.914;2023-05-28T16:14:05;21.80;95.50
39849;DHT22;25518;47.878;15.914;2023-05-28T16:16:55;21.60;94.30
39849;DHT22;25518;47.878;15.914;2023-05-28T16:19:45;21.60;94.70
39849;DHT22;25518;47.878;15.914;2023-05-28T16:22:36;21.50;94.90
39849;DHT22;25518;47.878;15.914;2023-05-28T16:25:27;21.40;93.70
39849;DHT22;25518;47.878;15.914;2023-05-28T16:28:17;21.30;95.20
39849;DHT22;25518;47.878;15.914;2023-05-28T16:31:08;21.30;95.40
39849;DHT22;25518;47.878;15.914;2023-05-28T16:34:00;21.20;95.20
39849;DHT22;25518;47.878;15.914;2023-05-28T16:36:49;21.20;95.90
39849;DHT22;25518;47.878;15.914;2023-05-28T16:39:40;21.10;96.30
39849;DHT22;25518;47.878;15.914;2023-05-28T16:42:29;21.10;94.90
39849;DHT22;25518;47.878;15.914;2023-05-28T16:45:19;21.00;94.50
39849;DHT22;25518;47.878;15.914;2023-05-28T16:48:09;21.20;96.00
39849;DHT22;25518;47.878;15.914;2023-05-28T16:50:59;21.30;94.80
39849;DHT22;25518;47.878;15.914;2023-05-28T16:53:49;20.60;95.10
39849;DHT22;25518;47.878;15.914;2023-05-28T16:56:39;21.40;94.90
39849;DHT22;25518;47.878;15.914;2023-05-28T16:59:29;21.40;96.10
39849;DHT22;25518;47.878;15.914;2023-05-28T17:02:20;21.70;94.50
39849;DHT22;25518;47.878;15.914;2023-05-28T17:05:10;22.30;94.70
39849;DHT22;25518;47.878;15.914;2023-05-28T17:08:02;23.00;94.00
39849;DHT22;25518;47.878;15.914;2023-05-28T17:10:51;23.20;93.50
39849;DHT22;25518;47.878;15.914;2023-05-28T17:13:41;23.70;92.90
39849;DHT22;25518;47.878;15.914;2023-05-28T17:16:30;24.00;92.80
39849;DHT22;25518;47.878;15.914;2023-05-28T17:19:20;24.20;91.80
39849;DHT22;25518;47.878;15.914;2023-05-28T17:22:10;24.30;92.80
39849;DHT22;25518;47.878;15.914;2023-05-28T17:24:59;23.50;92.70
39849;DHT22;25518;47.878;15.914;2023-05-28T17:27:49;24.00;93.00
39849;DHT22;25518;47.878;15.914;2023-05-28T17:30:38;22.60;93.20
39849;DHT22;25518;47.878;15.914;2023-05-28T17:33:28;21.90;95.20
39849;DHT22;25518;47.878;15.914;2023-05-28T17:36:17;21.60;98.00
39849;DHT22;25518;47.878;15.914;2023-05-28T17:39:07;20.80;99.90
39849;DHT22;25518;47.878;15.914;2023-05-28T17:41:57;20.20;99.90
39849;DHT22;25518;47.878;15.914;2023-05-28T17:44:46;19.80;99.90
39849;DHT22;25518;47.878;15.914;2023-05-28T17:47:36;19.20;99.90
39849;DHT22;25518;47.878;15.914;2023-05-28T17:50:26;18.90;99.90
39849;DHT22;25518;47.878;15.914;2023-05-28T17:53:16;18.50;99.90
39849;DHT22;25518;47.878;15.914;2023-05-28T17:56:06;18.30;99.90
39849;DHT22;25518;47.878;15.914;2023-05-28T17:58:55;18.20;99.90